KNQI/NQI METAR and TAF weather

Enter ICAO airport designator
Station Type Date Time Source
KNQI METAR 2019/12/08 00:56 UTC NOAA

KNQI 080056Z AUTO 13005KT 10SM CLR 16/12 A3019 RMK AO2 SLP218 T01610122


Station Type Date Time Source
KNQI Decoded METAR 2019/12/08 00:56 UTC NOAA

KINGSVILLE NAS, TX, United States (KNQI) 27-50N 097-81W 15M
Dec 07, 2019 - 07:56 PM EST / 2019.12.08 0056 UTC
Wind: from the SE (130 degrees) at 6 MPH (5 KT):0
Visibility: 10 mile(s):0
Sky conditions: clear
Temperature: 61.0 F (16.1 C)
Dew Point: 54.0 F (12.2 C)
Relative Humidity: 77%
Pressure (altimeter): 30.19 in. Hg (1022 hPa)
ob: KNQI 080056Z AUTO 13005KT 10SM CLR 16/12 A3019 RMK AO2 SLP218 T01610122
cycle: 1

Station Type Date Time Source
KNQI TAF 2019/12/07 23:03 UTC NOAA

TAF KNQI 0723/0823 VRB06KT 9999 SCT020 SCT200 QNH2986INS
BECMG 0819/0821 16009KT QNH2984INS AUTOMATED SENSOR METWATCH 0723 TIL 0821 T13/0813Z T25/0821Z FN00205

Example: see airport list